sensor_id;sensor_type;location;lat;lon;timestamp;pressure;altitude;pressure_sealevel;temperature;humidity
78168;BME280;67410;42.698;23.378;2024-02-04T00:00:49;96019.34;;;0.87;81.76
78168;BME280;67410;42.698;23.378;2024-02-04T00:03:15;96016.03;;;0.94;81.57
78168;BME280;67410;42.698;23.378;2024-02-04T00:05:41;96002.16;;;0.86;81.04
78168;BME280;67410;42.698;23.378;2024-02-04T00:08:07;96019.72;;;1.01;81.02
78168;BME280;67410;42.698;23.378;2024-02-04T00:10:34;96011.78;;;1.03;80.42
78168;BME280;67410;42.698;23.378;2024-02-04T00:13:01;96010.91;;;1.12;79.63
78168;BME280;67410;42.698;23.378;2024-02-04T00:15:27;96022.00;;;1.05;79.20
78168;BME280;67410;42.698;23.378;2024-02-04T00:17:53;96012.09;;;0.90;80.78
78168;BME280;67410;42.698;23.378;2024-02-04T00:20:19;96010.06;;;0.94;80.11
78168;BME280;67410;42.698;23.378;2024-02-04T00:22:45;96007.59;;;0.92;80.49
78168;BME280;67410;42.698;23.378;2024-02-04T00:25:12;96014.81;;;0.98;81.20
78168;BME280;67410;42.698;23.378;2024-02-04T00:27:39;96002.53;;;1.00;80.83
78168;BME280;67410;42.698;23.378;2024-02-04T00:30:05;96002.44;;;1.10;80.81
78168;BME280;67410;42.698;23.378;2024-02-04T00:32:32;96006.03;;;1.09;80.43
78168;BME280;67410;42.698;23.378;2024-02-04T00:34:58;96010.59;;;1.15;80.60
78168;BME280;67410;42.698;23.378;2024-02-04T00:37:24;96009.75;;;1.24;80.46
78168;BME280;67410;42.698;23.378;2024-02-04T00:39:50;96004.94;;;1.29;80.51
78168;BME280;67410;42.698;23.378;2024-02-04T00:42:16;96001.78;;;1.71;82.04
78168;BME280;67410;42.698;23.378;2024-02-04T00:44:42;96000.28;;;2.90;80.97
78168;BME280;67410;42.698;23.378;2024-02-04T00:47:08;96001.00;;;3.08;78.04
78168;BME280;67410;42.698;23.378;2024-02-04T00:49:34;95999.41;;;3.15;76.38
78168;BME280;67410;42.698;23.378;2024-02-04T00:52:00;95991.56;;;3.07;75.96
78168;BME280;67410;42.698;23.378;2024-02-04T00:54:26;95999.41;;;3.15;77.05
78168;BME280;67410;42.698;23.378;2024-02-04T00:56:52;95994.78;;;3.51;77.12
78168;BME280;67410;42.698;23.378;2024-02-04T00:59:18;95986.00;;;3.52;75.86
78168;BME280;67410;42.698;23.378;2024-02-04T01:01:44;95994.63;;;3.45;75.56
78168;BME280;67410;42.698;23.378;2024-02-04T01:04:11;96000.78;;;3.44;76.73
78168;BME280;67410;42.698;23.378;2024-02-04T01:06:37;95993.84;;;3.68;76.94
78168;BME280;67410;42.698;23.378;2024-02-04T01:09:03;95991.41;;;3.75;76.69
78168;BME280;67410;42.698;23.378;2024-02-04T01:11:29;96000.03;;;3.92;76.23
78168;BME280;67410;42.698;23.378;2024-02-04T01:13:55;95995.97;;;3.97;75.35
78168;BME280;67410;42.698;23.378;2024-02-04T01:16:21;95997.94;;;3.95;74.95
78168;BME280;67410;42.698;23.378;2024-02-04T01:18:47;95996.94;;;4.13;75.69
78168;BME280;67410;42.698;23.378;2024-02-04T01:21:13;95999.38;;;4.30;75.31
78168;BME280;67410;42.698;23.378;2024-02-04T01:23:39;96006.38;;;4.38;74.80
78168;BME280;67410;42.698;23.378;2024-02-04T01:26:05;95995.13;;;4.54;74.22
78168;BME280;67410;42.698;23.378;2024-02-04T01:28:32;95996.84;;;4.69;73.75
78168;BME280;67410;42.698;23.378;2024-02-04T01:30:58;95994.72;;;4.81;73.64
78168;BME280;67410;42.698;23.378;2024-02-04T01:33:24;95990.81;;;4.77;73.47
78168;BME280;67410;42.698;23.378;2024-02-04T01:35:50;95988.19;;;4.85;73.64
78168;BME280;67410;42.698;23.378;2024-02-04T01:38:16;95993.81;;;5.05;72.90
78168;BME280;67410;42.698;23.378;2024-02-04T01:40:42;95985.97;;;5.13;72.60
78168;BME280;67410;42.698;23.378;2024-02-04T01:43:08;95978.44;;;5.18;72.74
78168;BME280;67410;42.698;23.378;2024-02-04T01:45:34;95974.78;;;5.27;72.89
78168;BME280;67410;42.698;23.378;2024-02-04T01:48:01;95960.19;;;5.41;72.31
78168;BME280;67410;42.698;23.378;2024-02-04T01:50:27;95982.81;;;5.49;71.83
78168;BME280;67410;42.698;23.378;2024-02-04T01:52:53;95968.25;;;5.54;72.02
78168;BME280;67410;42.698;23.378;2024-02-04T01:55:19;95973.91;;;5.66;71.90
78168;BME280;67410;42.698;23.378;2024-02-04T01:57:47;95970.44;;;5.73;71.50
78168;BME280;67410;42.698;23.378;2024-02-04T02:00:15;95976.56;;;5.89;70.79
78168;BME280;67410;42.698;23.378;2024-02-04T02:02:41;95975.59;;;6.04;71.03
78168;BME280;67410;42.698;23.378;2024-02-04T02:05:09;95963.47;;;6.11;69.83
78168;BME280;67410;42.698;23.378;2024-02-04T02:07:35;95979.44;;;6.31;69.69
78168;BME280;67410;42.698;23.378;2024-02-04T02:10:01;95970.19;;;6.43;69.74
78168;BME280;67410;42.698;23.378;2024-02-04T02:12:39;95950.69;;;6.31;69.75
78168;BME280;67410;42.698;23.378;2024-02-04T02:17:58;95961.63;;;6.64;68.81
78168;BME280;67410;42.698;23.378;2024-02-04T02:20:32;95962.28;;;6.66;69.19
78168;BME280;67410;42.698;23.378;2024-02-04T02:23:21;95954.34;;;6.74;68.32
78168;BME280;67410;42.698;23.378;2024-02-04T02:25:49;95953.00;;;6.78;68.67
78168;BME280;67410;42.698;23.378;2024-02-04T02:28:16;95948.81;;;6.84;68.36
78168;BME280;67410;42.698;23.378;2024-02-04T02:30:42;95959.28;;;6.84;68.35
78168;BME280;67410;42.698;23.378;2024-02-04T02:33:09;95947.41;;;6.82;68.01
78168;BME280;67410;42.698;23.378;2024-02-04T02:35:35;95947.28;;;6.90;68.11
78168;BME280;67410;42.698;23.378;2024-02-04T02:38:07;95946.13;;;6.92;67.94
78168;BME280;67410;42.698;23.378;2024-02-04T02:40:41;95948.72;;;6.92;67.60
78168;BME280;67410;42.698;23.378;2024-02-04T02:43:10;95941.34;;;6.96;67.49
78168;BME280;67410;42.698;23.378;2024-02-04T02:45:42;95934.47;;;6.95;67.79
78168;BME280;67410;42.698;23.378;2024-02-04T02:48:09;95942.13;;;7.11;67.79
78168;BME280;67410;42.698;23.378;2024-02-04T02:50:36;95932.84;;;7.08;67.59
78168;BME280;67410;42.698;23.378;2024-02-04T02:53:02;95934.34;;;7.18;66.79
78168;BME280;67410;42.698;23.378;2024-02-04T02:55:28;95931.53;;;7.19;66.58
78168;BME280;67410;42.698;23.378;2024-02-04T02:57:54;95929.56;;;7.21;66.42
78168;BME280;67410;42.698;23.378;2024-02-04T03:00:20;95936.41;;;7.22;66.91
78168;BME280;67410;42.698;23.378;2024-02-04T03:02:46;95943.00;;;7.18;66.49
78168;BME280;67410;42.698;23.378;2024-02-04T03:05:15;95948.44;;;7.17;67.03
78168;BME280;67410;42.698;23.378;2024-02-04T03:07:41;95942.66;;;7.21;66.29
78168;BME280;67410;42.698;23.378;2024-02-04T03:10:08;95950.13;;;7.24;66.13
78168;BME280;67410;42.698;23.378;2024-02-04T03:12:34;95937.22;;;7.23;66.62
78168;BME280;67410;42.698;23.378;2024-02-04T03:15:01;95935.69;;;7.13;67.04
78168;BME280;67410;42.698;23.378;2024-02-04T03:17:27;95931.34;;;7.21;66.56
78168;BME280;67410;42.698;23.378;2024-02-04T03:19:53;95938.59;;;7.19;66.63
78168;BME280;67410;42.698;23.378;2024-02-04T03:22:21;95937.03;;;7.24;66.41
78168;BME280;67410;42.698;23.378;2024-02-04T03:24:48;95934.97;;;7.20;66.99
78168;BME280;67410;42.698;23.378;2024-02-04T03:27:17;95936.03;;;7.25;66.05
78168;BME280;67410;42.698;23.378;2024-02-04T03:29:43;95941.56;;;7.30;66.22
78168;BME280;67410;42.698;23.378;2024-02-04T03:32:11;95934.53;;;7.16;66.61
78168;BME280;67410;42.698;23.378;2024-02-04T03:34:37;95936.91;;;7.11;66.77
78168;BME280;67410;42.698;23.378;2024-02-04T03:37:05;95931.13;;;7.01;66.88
78168;BME280;67410;42.698;23.378;2024-02-04T03:39:31;95925.34;;;7.05;67.10
78168;BME280;67410;42.698;23.378;2024-02-04T03:41:57;95925.91;;;7.01;67.89
78168;BME280;67410;42.698;23.378;2024-02-04T03:44:23;95921.03;;;6.98;67.68
78168;BME280;67410;42.698;23.378;2024-02-04T03:46:50;95909.91;;;7.10;66.57
78168;BME280;67410;42.698;23.378;2024-02-04T03:49:17;95905.22;;;7.06;67.36
78168;BME280;67410;42.698;23.378;2024-02-04T03:51:43;95897.72;;;7.03;66.94
78168;BME280;67410;42.698;23.378;2024-02-04T03:54:09;95889.97;;;6.95;67.03
78168;BME280;67410;42.698;23.378;2024-02-04T03:56:35;95904.31;;;6.99;67.24
78168;BME280;67410;42.698;23.378;2024-02-04T03:59:01;95905.03;;;6.93;67.33
78168;BME280;67410;42.698;23.378;2024-02-04T04:01:28;95907.66;;;6.93;67.73
78168;BME280;67410;42.698;23.378;2024-02-04T04:03:54;95912.53;;;7.10;67.88
78168;BME280;67410;42.698;23.378;2024-02-04T04:06:20;95905.22;;;7.06;67.28
78168;BME280;67410;42.698;23.378;2024-02-04T04:08:46;95912.06;;;7.07;67.46
78168;BME280;67410;42.698;23.378;2024-02-04T04:11:12;95915.31;;;7.09;67.68
78168;BME280;67410;42.698;23.378;2024-02-04T04:13:38;95914.38;;;7.17;67.12
78168;BME280;67410;42.698;23.378;2024-02-04T04:16:05;95920.88;;;7.21;67.42
78168;BME280;67410;42.698;23.378;2024-02-04T04:18:31;95907.78;;;7.21;67.71
78168;BME280;67410;42.698;23.378;2024-02-04T04:20:57;95910.78;;;7.18;67.94
78168;BME280;67410;42.698;23.378;2024-02-04T04:23:24;95909.16;;;7.17;68.36
78168;BME280;67410;42.698;23.378;2024-02-04T04:25:50;95901.63;;;7.28;66.87
78168;BME280;67410;42.698;23.378;2024-02-04T04:28:16;95905.63;;;7.24;67.21
78168;BME280;67410;42.698;23.378;2024-02-04T04:30:42;95911.13;;;7.29;66.69
78168;BME280;67410;42.698;23.378;2024-02-04T04:33:08;95922.94;;;7.25;67.87
78168;BME280;67410;42.698;23.378;2024-02-04T04:35:34;95928.28;;;7.32;67.29
78168;BME280;67410;42.698;23.378;2024-02-04T04:38:00;95926.56;;;7.24;67.19
78168;BME280;67410;42.698;23.378;2024-02-04T04:40:27;95926.31;;;7.19;66.46
78168;BME280;67410;42.698;23.378;2024-02-04T04:42:53;95924.44;;;6.98;66.72
78168;BME280;67410;42.698;23.378;2024-02-04T04:45:19;95924.75;;;6.74;67.62
78168;BME280;67410;42.698;23.378;2024-02-04T04:47:47;95921.03;;;6.68;67.34
78168;BME280;67410;42.698;23.378;2024-02-04T04:50:13;95932.75;;;6.58;68.07
78168;BME280;67410;42.698;23.378;2024-02-04T04:52:39;95925.19;;;6.48;68.95
78168;BME280;67410;42.698;23.378;2024-02-04T04:55:05;95920.03;;;6.40;69.30
78168;BME280;67410;42.698;23.378;2024-02-04T04:57:32;95915.06;;;6.30;69.46
78168;BME280;67410;42.698;23.378;2024-02-04T04:59:59;95913.72;;;6.64;69.44
78168;BME280;67410;42.698;23.378;2024-02-04T05:02:29;95920.03;;;6.99;68.70
78168;BME280;67410;42.698;23.378;2024-02-04T05:04:55;95912.72;;;7.09;67.59
78168;BME280;67410;42.698;23.378;2024-02-04T05:07:21;95915.31;;;7.09;67.85
78168;BME280;67410;42.698;23.378;2024-02-04T05:09:48;95897.00;;;7.09;67.44
78168;BME280;67410;42.698;23.378;2024-02-04T05:12:14;95906.97;;;7.20;68.28
78168;BME280;67410;42.698;23.378;2024-02-04T05:14:40;95908.41;;;7.23;67.21
78168;BME280;67410;42.698;23.378;2024-02-04T05:17:06;95912.88;;;7.43;67.22
78168;BME280;67410;42.698;23.378;2024-02-04T05:19:32;95909.25;;;7.44;66.26
78168;BME280;67410;42.698;23.378;2024-02-04T05:21:58;95916.63;;;7.56;66.10
78168;BME280;67410;42.698;23.378;2024-02-04T05:24:24;95924.50;;;7.56;65.88
78168;BME280;67410;42.698;23.378;2024-02-04T05:26:50;95911.69;;;7.46;66.44
78168;BME280;67410;42.698;23.378;2024-02-04T05:29:16;95918.09;;;7.43;65.89
78168;BME280;67410;42.698;23.378;2024-02-04T05:31:43;95924.53;;;7.41;66.36
78168;BME280;67410;42.698;23.378;2024-02-04T05:34:10;95926.59;;;7.45;66.32
78168;BME280;67410;42.698;23.378;2024-02-04T05:36:36;95916.75;;;7.47;66.00
78168;BME280;67410;42.698;23.378;2024-02-04T05:39:13;95917.56;;;7.48;66.07
78168;BME280;67410;42.698;23.378;2024-02-04T05:41:40;95921.59;;;7.51;66.53
78168;BME280;67410;42.698;23.378;2024-02-04T05:44:07;95922.66;;;7.35;66.97
78168;BME280;67410;42.698;23.378;2024-02-04T05:46:38;95921.66;;;7.36;67.02
78168;BME280;67410;42.698;23.378;2024-02-04T05:49:04;95917.53;;;7.27;66.95
78168;BME280;67410;42.698;23.378;2024-02-04T05:51:38;95916.72;;;7.26;66.97
78168;BME280;67410;42.698;23.378;2024-02-04T05:54:05;95917.28;;;7.22;66.72
78168;BME280;67410;42.698;23.378;2024-02-04T05:56:31;95911.22;;;7.21;66.84
78168;BME280;67410;42.698;23.378;2024-02-04T05:58:57;95924.50;;;7.20;67.33
78168;BME280;67410;42.698;23.378;2024-02-04T06:01:23;95927.84;;;7.13;66.25
78168;BME280;67410;42.698;23.378;2024-02-04T06:03:49;95932.25;;;7.13;66.78
78168;BME280;67410;42.698;23.378;2024-02-04T06:06:16;95936.91;;;7.11;66.58
78168;BME280;67410;42.698;23.378;2024-02-04T06:08:46;95938.88;;;7.09;66.66
78168;BME280;67410;42.698;23.378;2024-02-04T06:11:12;95936.72;;;6.98;66.75
78168;BME280;67410;42.698;23.378;2024-02-04T06:13:40;95935.56;;;7.00;67.17
78168;BME280;67410;42.698;23.378;2024-02-04T06:16:07;95940.78;;;7.00;66.73
78168;BME280;67410;42.698;23.378;2024-02-04T06:18:35;95938.25;;;6.92;66.69
78168;BME280;67410;42.698;23.378;2024-02-04T06:21:04;95948.47;;;7.02;66.29
78168;BME280;67410;42.698;23.378;2024-02-04T06:23:30;95957.22;;;6.94;66.90
78168;BME280;67410;42.698;23.378;2024-02-04T06:25:56;95959.28;;;6.99;66.95
78168;BME280;67410;42.698;23.378;2024-02-04T06:28:22;95976.72;;;6.92;66.83
78168;BME280;67410;42.698;23.378;2024-02-04T06:30:49;95977.72;;;6.91;67.10
78168;BME280;67410;42.698;23.378;2024-02-04T06:33:15;95993.06;;;6.94;66.90
78168;BME280;67410;42.698;23.378;2024-02-04T06:35:42;95988.25;;;7.12;67.31
78168;BME280;67410;42.698;23.378;2024-02-04T06:38:09;95985.53;;;7.20;66.42
78168;BME280;67410;42.698;23.378;2024-02-04T06:40:35;95982.19;;;7.26;65.90
78168;BME280;67410;42.698;23.378;2024-02-04T06:43:01;95977.50;;;7.22;65.93
78168;BME280;67410;42.698;23.378;2024-02-04T06:45:27;95992.63;;;7.41;65.08
78168;BME280;67410;42.698;23.378;2024-02-04T06:47:54;95993.63;;;7.55;65.61
78168;BME280;67410;42.698;23.378;2024-02-04T06:50:20;95976.91;;;7.56;65.43
78168;BME280;67410;42.698;23.378;2024-02-04T06:52:46;95977.59;;;7.64;64.40
78168;BME280;67410;42.698;23.378;2024-02-04T06:55:12;95971.94;;;7.82;64.13
78168;BME280;67410;42.698;23.378;2024-02-04T06:57:38;95970.03;;;7.97;63.67
78168;BME280;67410;42.698;23.378;2024-02-04T07:00:06;95969.63;;;8.15;62.86
78168;BME280;67410;42.698;23.378;2024-02-04T07:02:34;95960.72;;;7.95;64.03
78168;BME280;67410;42.698;23.378;2024-02-04T07:05:00;95974.78;;;8.08;63.74
78168;BME280;67410;42.698;23.378;2024-02-04T07:07:26;95969.41;;;8.17;63.75
78168;BME280;67410;42.698;23.378;2024-02-04T07:09:52;95965.78;;;8.39;62.53
78168;BME280;67410;42.698;23.378;2024-02-04T07:12:19;95962.91;;;8.62;62.12
78168;BME280;67410;42.698;23.378;2024-02-04T07:14:46;95958.16;;;8.72;62.07
78168;BME280;67410;42.698;23.378;2024-02-04T07:17:12;95976.81;;;8.90;61.08
78168;BME280;67410;42.698;23.378;2024-02-04T07:19:38;95965.56;;;8.96;61.23
78168;BME280;67410;42.698;23.378;2024-02-04T07:22:04;95965.50;;;9.31;60.41
78168;BME280;67410;42.698;23.378;2024-02-04T07:24:30;95975.72;;;9.60;59.14
78168;BME280;67410;42.698;23.378;2024-02-04T07:26:56;95970.94;;;9.23;59.97
78168;BME280;67410;42.698;23.378;2024-02-04T07:29:22;95964.78;;;9.09;60.36
78168;BME280;67410;42.698;23.378;2024-02-04T07:31:48;95966.09;;;9.26;60.26
78168;BME280;67410;42.698;23.378;2024-02-04T07:34:14;95968.06;;;9.18;61.00
78168;BME280;67410;42.698;23.378;2024-02-04T07:36:41;95968.41;;;9.01;61.47
78168;BME280;67410;42.698;23.378;2024-02-04T07:39:07;95968.88;;;9.18;60.67
78168;BME280;67410;42.698;23.378;2024-02-04T07:41:33;95982.56;;;9.07;61.26
78168;BME280;67410;42.698;23.378;2024-02-04T07:43:59;95966.50;;;9.23;61.16
78168;BME280;67410;42.698;23.378;2024-02-04T07:46:25;95976.19;;;9.23;60.57
78168;BME280;67410;42.698;23.378;2024-02-04T07:48:51;95972.06;;;9.00;61.37
78168;BME280;67410;42.698;23.378;2024-02-04T07:51:17;95995.50;;;9.02;61.18
78168;BME280;67410;42.698;23.378;2024-02-04T07:53:43;95981.69;;;8.93;61.50
78168;BME280;67410;42.698;23.378;2024-02-04T07:56:11;95987.19;;;8.98;61.52
78168;BME280;67410;42.698;23.378;2024-02-04T07:58:37;95985.41;;;9.53;59.80
78168;BME280;67410;42.698;23.378;2024-02-04T08:01:03;95984.75;;;10.84;56.72
78168;BME280;67410;42.698;23.378;2024-02-04T08:03:29;95999.63;;;12.19;53.21
78168;BME280;67410;42.698;23.378;2024-02-04T08:05:55;95987.22;;;12.51;51.65
78168;BME280;67410;42.698;23.378;2024-02-04T08:08:22;96005.81;;;12.32;50.83
78168;BME280;67410;42.698;23.378;2024-02-04T08:10:48;95993.41;;;11.11;54.34
78168;BME280;67410;42.698;23.378;2024-02-04T08:13:14;95991.38;;;11.00;54.70
78168;BME280;67410;42.698;23.378;2024-02-04T08:15:40;95994.28;;;10.85;54.63
78168;BME280;67410;42.698;23.378;2024-02-04T08:18:06;95976.09;;;11.80;52.30
78168;BME280;67410;42.698;23.378;2024-02-04T08:20:32;95972.28;;;12.07;51.00
78168;BME280;67410;42.698;23.378;2024-02-04T08:22:58;95995.50;;;11.99;50.75
78168;BME280;67410;42.698;23.378;2024-02-04T08:25:24;95991.59;;;11.63;51.88
78168;BME280;67410;42.698;23.378;2024-02-04T08:27:51;95979.69;;;10.76;55.00
78168;BME280;67410;42.698;23.378;2024-02-04T08:30:17;95984.53;;;10.79;55.00
78168;BME280;67410;42.698;23.378;2024-02-04T08:32:45;95978.63;;;10.97;54.75
78168;BME280;67410;42.698;23.378;2024-02-04T08:35:11;95994.66;;;10.89;55.44
78168;BME280;67410;42.698;23.378;2024-02-04T08:37:37;95991.03;;;10.90;54.86
78168;BME280;67410;42.698;23.378;2024-02-04T08:40:06;95997.94;;;10.32;56.94
78168;BME280;67410;42.698;23.378;2024-02-04T08:42:32;95990.59;;;10.14;57.34
78168;BME280;67410;42.698;23.378;2024-02-04T08:44:58;95993.69;;;10.24;57.83
78168;BME280;67410;42.698;23.378;2024-02-04T08:47:24;95985.78;;;10.50;58.10
78168;BME280;67410;42.698;23.378;2024-02-04T08:49:50;95993.72;;;11.41;55.23
78168;BME280;67410;42.698;23.378;2024-02-04T08:52:16;95988.00;;;11.96;53.42
78168;BME280;67410;42.698;23.378;2024-02-04T08:54:42;95989.38;;;10.96;55.74
78168;BME280;67410;42.698;23.378;2024-02-04T08:57:08;95983.41;;;11.27;55.29
78168;BME280;67410;42.698;23.378;2024-02-04T08:59:35;95987.72;;;11.14;55.05
78168;BME280;67410;42.698;23.378;2024-02-04T09:02:02;95985.16;;;10.88;55.95
78168;BME280;67410;42.698;23.378;2024-02-04T09:04:28;95968.34;;;10.69;56.95
78168;BME280;67410;42.698;23.378;2024-02-04T09:06:54;95976.88;;;10.45;57.31
78168;BME280;67410;42.698;23.378;2024-02-04T09:09:20;95974.63;;;10.42;58.03
78168;BME280;67410;42.698;23.378;2024-02-04T09:11:47;95966.75;;;10.22;57.85
78168;BME280;67410;42.698;23.378;2024-02-04T09:14:13;95966.13;;;10.07;58.50
78168;BME280;67410;42.698;23.378;2024-02-04T09:16:39;95964.09;;;10.02;59.12
78168;BME280;67410;42.698;23.378;2024-02-04T09:19:05;95976.03;;;10.05;58.59
78168;BME280;67410;42.698;23.378;2024-02-04T09:21:31;95981.50;;;10.10;58.87
78168;BME280;67410;42.698;23.378;2024-02-04T09:23:57;95983.72;;;10.06;59.53
78168;BME280;67410;42.698;23.378;2024-02-04T09:26:23;95991.75;;;9.78;59.68
78168;BME280;67410;42.698;23.378;2024-02-04T09:28:50;96002.50;;;9.83;59.90
78168;BME280;67410;42.698;23.378;2024-02-04T09:31:16;95994.00;;;9.88;60.02
78168;BME280;67410;42.698;23.378;2024-02-04T09:33:42;96004.28;;;9.76;59.96
78168;BME280;67410;42.698;23.378;2024-02-04T09:36:08;95989.13;;;9.85;59.68
78168;BME280;67410;42.698;23.378;2024-02-04T09:38:34;95992.38;;;9.94;59.23
78168;BME280;67410;42.698;23.378;2024-02-04T09:41:01;95989.34;;;9.90;60.58
78168;BME280;67410;42.698;23.378;2024-02-04T09:43:32;95990.47;;;11.46;55.71
78168;BME280;67410;42.698;23.378;2024-02-04T09:46:01;95992.91;;;12.24;53.51
78168;BME280;67410;42.698;23.378;2024-02-04T09:48:32;95974.38;;;12.80;51.97
78168;BME280;67410;42.698;23.378;2024-02-04T09:50:58;95981.22;;;13.06;51.34
78168;BME280;67410;42.698;23.378;2024-02-04T09:53:34;95984.03;;;13.96;49.95
78168;BME280;67410;42.698;23.378;2024-02-04T09:56:02;95984.66;;;14.51;47.38
78168;BME280;67410;42.698;23.378;2024-02-04T09:58:29;95976.28;;;14.77;46.78
78168;BME280;67410;42.698;23.378;2024-02-04T10:00:56;95963.66;;;13.96;48.28
78168;BME280;67410;42.698;23.378;2024-02-04T10:03:23;95966.00;;;14.57;47.05
78168;BME280;67410;42.698;23.378;2024-02-04T10:05:49;95969.47;;;14.58;47.09
78168;BME280;67410;42.698;23.378;2024-02-04T10:08:15;95976.84;;;14.91;46.31
78168;BME280;67410;42.698;23.378;2024-02-04T10:10:41;95981.19;;;15.32;45.54
78168;BME280;67410;42.698;23.378;2024-02-04T10:13:08;95976.63;;;14.93;46.68
78168;BME280;67410;42.698;23.378;2024-02-04T10:15:35;95977.09;;;14.66;47.85
78168;BME280;67410;42.698;23.378;2024-02-04T10:18:05;95975.38;;;14.18;48.55
78168;BME280;67410;42.698;23.378;2024-02-04T10:20:32;95978.25;;;14.17;48.67
78168;BME280;67410;42.698;23.378;2024-02-04T10:22:58;95984.56;;;13.56;50.04
78168;BME280;67410;42.698;23.378;2024-02-04T10:25:24;95981.91;;;13.19;51.24
78168;BME280;67410;42.698;23.378;2024-02-04T10:27:50;95979.69;;;13.16;51.47
78168;BME280;67410;42.698;23.378;2024-02-04T10:30:19;95972.69;;;14.48;48.94
78168;BME280;67410;42.698;23.378;2024-02-04T10:32:49;95968.69;;;14.93;46.82
78168;BME280;67410;42.698;23.378;2024-02-04T10:35:16;95970.97;;;13.82;49.28
78168;BME280;67410;42.698;23.378;2024-02-04T10:37:45;95968.31;;;13.16;50.81
78168;BME280;67410;42.698;23.378;2024-02-04T10:40:11;95966.75;;;12.15;53.56
78168;BME280;67410;42.698;23.378;2024-02-04T10:42:38;95974.16;;;12.32;52.93
78168;BME280;67410;42.698;23.378;2024-02-04T10:45:08;95971.44;;;11.82;54.48
78168;BME280;67410;42.698;23.378;2024-02-04T10:47:39;95971.28;;;11.70;55.78
78168;BME280;67410;42.698;23.378;2024-02-04T10:50:06;95969.34;;;11.91;55.03
78168;BME280;67410;42.698;23.378;2024-02-04T10:52:36;95978.16;;;11.71;55.49
78168;BME280;67410;42.698;23.378;2024-02-04T10:55:08;95969.38;;;11.84;55.20
78168;BME280;67410;42.698;23.378;2024-02-04T10:57:38;95959.75;;;12.03;54.43
78168;BME280;67410;42.698;23.378;2024-02-04T11:00:06;95963.06;;;11.92;55.41
78168;BME280;67410;42.698;23.378;2024-02-04T11:02:35;95970.44;;;13.44;52.01
78168;BME280;67410;42.698;23.378;2024-02-04T11:05:08;95959.50;;;13.22;51.43
78168;BME280;67410;42.698;23.378;2024-02-04T11:07:35;95973.34;;;12.81;53.56
78168;BME280;67410;42.698;23.378;2024-02-04T11:10:02;95977.16;;;12.85;52.38
78168;BME280;67410;42.698;23.378;2024-02-04T11:12:30;95974.25;;;12.68;53.17
78168;BME280;67410;42.698;23.378;2024-02-04T11:15:02;95962.94;;;12.61;52.93
78168;BME280;67410;42.698;23.378;2024-02-04T11:20:46;95948.91;;;13.40;51.36
78168;BME280;67410;42.698;23.378;2024-02-04T11:25:50;95939.25;;;13.94;50.16
78168;BME280;67410;42.698;23.378;2024-02-04T11:28:19;95938.16;;;14.13;49.63
78168;BME280;67410;42.698;23.378;2024-02-04T11:30:47;95945.59;;;13.93;49.10
78168;BME280;67410;42.698;23.378;2024-02-04T11:33:18;95948.66;;;13.30;50.83
78168;BME280;67410;42.698;23.378;2024-02-04T11:35:45;95942.25;;;13.19;52.16
78168;BME280;67410;42.698;23.378;2024-02-04T11:38:11;95932.25;;;13.70;50.79
78168;BME280;67410;42.698;23.378;2024-02-04T11:40:39;95920.88;;;14.11;50.29
78168;BME280;67410;42.698;23.378;2024-02-04T11:43:10;95930.41;;;14.42;47.61
78168;BME280;67410;42.698;23.378;2024-02-04T11:45:38;95931.84;;;14.38;48.76
78168;BME280;67410;42.698;23.378;2024-02-04T11:48:09;95920.38;;;14.90;47.33
78168;BME280;67410;42.698;23.378;2024-02-04T11:50:37;95902.44;;;15.21;46.32
78168;BME280;67410;42.698;23.378;2024-02-04T11:53:11;95907.94;;;15.71;45.30
78168;BME280;67410;42.698;23.378;2024-02-04T11:55:39;95905.34;;;15.08;46.02
78168;BME280;67410;42.698;23.378;2024-02-04T11:58:06;95897.38;;;15.19;45.92
78168;BME280;67410;42.698;23.378;2024-02-04T12:00:33;95894.91;;;14.89;45.74
78168;BME280;67410;42.698;23.378;2024-02-04T12:03:06;95878.16;;;15.41;45.34
78168;BME280;67410;42.698;23.378;2024-02-04T12:05:34;95880.00;;;15.00;45.98
78168;BME280;67410;42.698;23.378;2024-02-04T12:08:05;95873.84;;;15.11;45.76
78168;BME280;67410;42.698;23.378;2024-02-04T12:10:33;95896.19;;;14.52;47.70
78168;BME280;67410;42.698;23.378;2024-02-04T12:13:02;95890.28;;;14.85;47.47
78168;BME280;67410;42.698;23.378;2024-02-04T12:15:29;95893.00;;;15.53;45.35
78168;BME280;67410;42.698;23.378;2024-02-04T12:18:05;95892.41;;;15.63;44.62
78168;BME280;67410;42.698;23.378;2024-02-04T12:20:31;95895.81;;;14.95;45.87
78168;BME280;67410;42.698;23.378;2024-02-04T12:22:58;95883.47;;;15.01;45.04
78168;BME280;67410;42.698;23.378;2024-02-04T12:25:24;95885.84;;;13.97;47.56
78168;BME280;67410;42.698;23.378;2024-02-04T12:27:53;95884.47;;;13.95;47.34
78168;BME280;67410;42.698;23.378;2024-02-04T12:30:19;95876.00;;;13.63;48.31
78168;BME280;67410;42.698;23.378;2024-02-04T12:32:58;95879.75;;;13.55;48.92
78168;BME280;67410;42.698;23.378;2024-02-04T12:35:25;95877.59;;;14.17;47.26
78168;BME280;67410;42.698;23.378;2024-02-04T12:37:52;95878.66;;;14.51;47.86
78168;BME280;67410;42.698;23.378;2024-02-04T12:40:27;95885.53;;;14.29;46.94
78168;BME280;67410;42.698;23.378;2024-02-04T12:43:02;95871.94;;;14.25;46.70
78168;BME280;67410;42.698;23.378;2024-02-04T12:45:29;95868.84;;;14.28;47.17
78168;BME280;67410;42.698;23.378;2024-02-04T12:47:56;95857.91;;;14.13;46.69
78168;BME280;67410;42.698;23.378;2024-02-04T12:50:23;95870.03;;;14.44;47.21
78168;BME280;67410;42.698;23.378;2024-02-04T12:53:02;95876.91;;;14.33;46.99
78168;BME280;67410;42.698;23.378;2024-02-04T12:55:28;95867.06;;;13.87;47.93
78168;BME280;67410;42.698;23.378;2024-02-04T12:58:04;95871.72;;;14.38;47.31
78168;BME280;67410;42.698;23.378;2024-02-04T13:00:31;95875.59;;;14.01;46.93
78168;BME280;67410;42.698;23.378;2024-02-04T13:02:58;95872.94;;;14.01;47.62
78168;BME280;67410;42.698;23.378;2024-02-04T13:05:25;95868.41;;;13.66;49.04